sensor_id;sensor_type;location;lat;lon;timestamp;pressure;altitude;pressure_sealevel;temperature;humidity
38880;BME280;25887;30.194;-97.880;2023-05-13T00:01:49;97874.00;;;31.37;49.91
38880;BME280;25887;30.194;-97.880;2023-05-13T00:04:15;97868.13;;;31.33;49.82
38880;BME280;25887;30.194;-97.880;2023-05-13T00:06:41;97871.78;;;31.32;49.96
38880;BME280;25887;30.194;-97.880;2023-05-13T00:09:07;97876.53;;;31.29;49.89
38880;BME280;25887;30.194;-97.880;2023-05-13T00:11:34;97883.09;;;31.25;49.86
38880;BME280;25887;30.194;-97.880;2023-05-13T00:14:00;97878.91;;;31.22;49.99
38880;BME280;25887;30.194;-97.880;2023-05-13T00:16:27;97876.50;;;31.19;50.42
38880;BME280;25887;30.194;-97.880;2023-05-13T00:18:55;97875.97;;;31.16;50.45
38880;BME280;25887;30.194;-97.880;2023-05-13T00:21:21;97882.50;;;31.12;50.32
38880;BME280;25887;30.194;-97.880;2023-05-13T00:23:48;97882.81;;;31.09;50.49
38880;BME280;25887;30.194;-97.880;2023-05-13T00:26:16;97897.06;;;31.08;50.91
38880;BME280;25887;30.194;-97.880;2023-05-13T00:28:42;97880.44;;;31.05;51.08
38880;BME280;25887;30.194;-97.880;2023-05-13T00:31:08;97880.56;;;31.04;51.35
38880;BME280;25887;30.194;-97.880;2023-05-13T00:33:34;97874.56;;;31.02;51.51
38880;BME280;25887;30.194;-97.880;2023-05-13T00:36:04;97869.69;;;30.97;51.35
38880;BME280;25887;30.194;-97.880;2023-05-13T00:38:31;97864.50;;;30.96;51.36
38880;BME280;25887;30.194;-97.880;2023-05-13T00:40:57;97869.28;;;30.92;51.73
38880;BME280;25887;30.194;-97.880;2023-05-13T00:43:23;97881.00;;;30.90;51.90
38880;BME280;25887;30.194;-97.880;2023-05-13T00:45:50;97893.69;;;30.86;51.65
38880;BME280;25887;30.194;-97.880;2023-05-13T00:48:16;97901.94;;;30.83;51.76
38880;BME280;25887;30.194;-97.880;2023-05-13T00:50:42;97904.03;;;30.79;52.17
38880;BME280;25887;30.194;-97.880;2023-05-13T00:56:31;97920.38;;;30.75;52.02
38880;BME280;25887;30.194;-97.880;2023-05-13T00:58:57;97913.78;;;30.69;51.96
38880;BME280;25887;30.194;-97.880;2023-05-13T01:04:30;97903.34;;;30.68;52.19
38880;BME280;25887;30.194;-97.880;2023-05-13T01:12:32;97918.06;;;30.51;52.15
38880;BME280;25887;30.194;-97.880;2023-05-13T01:18:05;97926.69;;;30.43;52.51
38880;BME280;25887;30.194;-97.880;2023-05-13T01:20:34;97931.41;;;30.40;52.77
38880;BME280;25887;30.194;-97.880;2023-05-13T01:23:02;97924.72;;;30.36;52.69
38880;BME280;25887;30.194;-97.880;2023-05-13T01:25:29;97926.66;;;30.34;52.77
38880;BME280;25887;30.194;-97.880;2023-05-13T01:27:55;97929.59;;;30.31;52.88
38880;BME280;25887;30.194;-97.880;2023-05-13T01:30:21;97941.16;;;30.30;53.00
38880;BME280;25887;30.194;-97.880;2023-05-13T01:32:49;97960.69;;;30.29;53.08
38880;BME280;25887;30.194;-97.880;2023-05-13T01:35:16;97970.56;;;30.27;53.24
38880;BME280;25887;30.194;-97.880;2023-05-13T01:37:43;97980.47;;;30.24;53.22
38880;BME280;25887;30.194;-97.880;2023-05-13T01:40:10;97981.31;;;30.25;53.28
38880;BME280;25887;30.194;-97.880;2023-05-13T01:42:36;97974.31;;;30.24;53.31
38880;BME280;25887;30.194;-97.880;2023-05-13T01:45:04;97984.94;;;30.24;53.52
38880;BME280;25887;30.194;-97.880;2023-05-13T01:47:31;98002.78;;;30.22;53.46
38880;BME280;25887;30.194;-97.880;2023-05-13T01:49:57;98009.91;;;30.21;53.43
38880;BME280;25887;30.194;-97.880;2023-05-13T01:52:23;98024.97;;;30.21;53.69
38880;BME280;25887;30.194;-97.880;2023-05-13T01:54:49;98035.56;;;30.21;53.59
38880;BME280;25887;30.194;-97.880;2023-05-13T01:57:16;98042.91;;;30.17;53.64
38880;BME280;25887;30.194;-97.880;2023-05-13T01:59:42;98050.03;;;30.17;53.68
38880;BME280;25887;30.194;-97.880;2023-05-13T02:02:08;98037.88;;;30.14;53.75
38880;BME280;25887;30.194;-97.880;2023-05-13T02:04:34;98042.34;;;30.14;53.80
38880;BME280;25887;30.194;-97.880;2023-05-13T02:07:00;98041.66;;;30.12;54.08
38880;BME280;25887;30.194;-97.880;2023-05-13T02:09:27;98048.72;;;30.11;53.88
38880;BME280;25887;30.194;-97.880;2023-05-13T02:11:53;98053.44;;;30.08;54.17
38880;BME280;25887;30.194;-97.880;2023-05-13T02:14:19;98060.69;;;30.06;54.43
38880;BME280;25887;30.194;-97.880;2023-05-13T02:16:45;98077.66;;;30.03;54.20
38880;BME280;25887;30.194;-97.880;2023-05-13T02:19:11;98078.75;;;30.01;54.81
38880;BME280;25887;30.194;-97.880;2023-05-13T02:21:37;98079.72;;;30.00;54.41
38880;BME280;25887;30.194;-97.880;2023-05-13T02:24:04;98065.78;;;29.98;54.48
38880;BME280;25887;30.194;-97.880;2023-05-13T02:26:30;98071.31;;;29.94;54.64
38880;BME280;25887;30.194;-97.880;2023-05-13T02:28:56;98079.53;;;29.91;54.41
38880;BME280;25887;30.194;-97.880;2023-05-13T02:31:22;98093.75;;;29.90;54.59
38880;BME280;25887;30.194;-97.880;2023-05-13T02:36:58;98074.75;;;29.85;54.73
38880;BME280;25887;30.194;-97.880;2023-05-13T02:39:24;98069.72;;;29.82;54.82
38880;BME280;25887;30.194;-97.880;2023-05-13T02:41:50;98066.47;;;29.79;55.00
38880;BME280;25887;30.194;-97.880;2023-05-13T02:44:16;98065.06;;;29.75;55.06
38880;BME280;25887;30.194;-97.880;2023-05-13T02:46:43;98062.66;;;29.72;55.05
38880;BME280;25887;30.194;-97.880;2023-05-13T02:49:10;98074.50;;;29.67;55.11
38880;BME280;25887;30.194;-97.880;2023-05-13T02:51:37;98099.38;;;29.65;55.38
38880;BME280;25887;30.194;-97.880;2023-05-13T02:54:03;98119.28;;;29.59;55.39
38880;BME280;25887;30.194;-97.880;2023-05-13T02:56:29;98139.75;;;29.57;55.24
38880;BME280;25887;30.194;-97.880;2023-05-13T02:58:56;98157.69;;;29.54;55.67
38880;BME280;25887;30.194;-97.880;2023-05-13T03:01:22;98163.09;;;29.52;55.50
38880;BME280;25887;30.194;-97.880;2023-05-13T03:03:48;98156.97;;;29.52;55.59
38880;BME280;25887;30.194;-97.880;2023-05-13T03:06:14;98156.28;;;29.50;55.71
38880;BME280;25887;30.194;-97.880;2023-05-13T03:08:41;98153.69;;;29.48;56.00
38880;BME280;25887;30.194;-97.880;2023-05-13T03:11:07;98167.75;;;29.49;55.80
38880;BME280;25887;30.194;-97.880;2023-05-13T03:13:33;98171.75;;;29.43;55.98
38880;BME280;25887;30.194;-97.880;2023-05-13T03:15:59;98181.50;;;29.42;56.23
38880;BME280;25887;30.194;-97.880;2023-05-13T03:18:25;98194.00;;;29.40;56.25
38880;BME280;25887;30.194;-97.880;2023-05-13T03:20:53;98201.38;;;29.37;56.09
38880;BME280;25887;30.194;-97.880;2023-05-13T03:23:20;98212.31;;;29.32;56.46
38880;BME280;25887;30.194;-97.880;2023-05-13T03:25:46;98213.53;;;29.28;56.53
38880;BME280;25887;30.194;-97.880;2023-05-13T03:28:12;98227.94;;;29.24;56.63
38880;BME280;25887;30.194;-97.880;2023-05-13T03:30:38;98243.38;;;29.19;57.07
38880;BME280;25887;30.194;-97.880;2023-05-13T03:33:24;98258.41;;;29.19;57.15
38880;BME280;25887;30.194;-97.880;2023-05-13T03:35:51;98279.91;;;29.14;56.96
38880;BME280;25887;30.194;-97.880;2023-05-13T03:38:17;98279.91;;;29.14;56.95
38880;BME280;25887;30.194;-97.880;2023-05-13T03:40:43;98284.34;;;29.13;57.01
38880;BME280;25887;30.194;-97.880;2023-05-13T03:43:09;98289.66;;;29.13;57.32
38880;BME280;25887;30.194;-97.880;2023-05-13T03:45:36;98296.75;;;29.13;57.33
38880;BME280;25887;30.194;-97.880;2023-05-13T03:48:02;98312.63;;;29.13;57.11
38880;BME280;25887;30.194;-97.880;2023-05-13T03:50:28;98311.78;;;29.12;57.40
38880;BME280;25887;30.194;-97.880;2023-05-13T03:52:55;98303.00;;;29.12;57.29
38880;BME280;25887;30.194;-97.880;2023-05-13T03:55:21;98300.56;;;29.09;57.21
38880;BME280;25887;30.194;-97.880;2023-05-13T03:57:48;98298.91;;;29.08;57.51
38880;BME280;25887;30.194;-97.880;2023-05-13T04:00:14;98300.09;;;29.04;57.54
38880;BME280;25887;30.194;-97.880;2023-05-13T04:02:41;98306.25;;;29.04;57.53
38880;BME280;25887;30.194;-97.880;2023-05-13T04:05:07;98300.19;;;29.02;57.39
38880;BME280;25887;30.194;-97.880;2023-05-13T04:07:34;98306.44;;;29.01;57.69
38880;BME280;25887;30.194;-97.880;2023-05-13T04:10:00;98307.41;;;29.00;57.55
38880;BME280;25887;30.194;-97.880;2023-05-13T04:12:26;98318.13;;;28.99;57.91
38880;BME280;25887;30.194;-97.880;2023-05-13T04:14:52;98320.78;;;28.99;57.78
38880;BME280;25887;30.194;-97.880;2023-05-13T04:17:19;98324.38;;;28.98;57.75
38880;BME280;25887;30.194;-97.880;2023-05-13T04:19:45;98329.66;;;28.98;57.41
38880;BME280;25887;30.194;-97.880;2023-05-13T04:22:11;98332.31;;;28.98;57.76
38880;BME280;25887;30.194;-97.880;2023-05-13T04:24:37;98331.47;;;28.97;57.99
38880;BME280;25887;30.194;-97.880;2023-05-13T04:27:03;98328.94;;;28.96;58.16
38880;BME280;25887;30.194;-97.880;2023-05-13T04:29:30;98323.75;;;28.94;57.97
38880;BME280;25887;30.194;-97.880;2023-05-13T04:31:56;98320.25;;;28.94;58.25
38880;BME280;25887;30.194;-97.880;2023-05-13T04:34:22;98319.31;;;28.95;58.04
38880;BME280;25887;30.194;-97.880;2023-05-13T04:36:48;98323.88;;;28.93;58.00
38880;BME280;25887;30.194;-97.880;2023-05-13T04:39:14;98325.56;;;28.94;58.03
38880;BME280;25887;30.194;-97.880;2023-05-13T04:41:41;98336.25;;;28.92;58.18
38880;BME280;25887;30.194;-97.880;2023-05-13T04:44:07;98348.63;;;28.92;57.90
38880;BME280;25887;30.194;-97.880;2023-05-13T04:46:33;98349.59;;;28.91;57.79
38880;BME280;25887;30.194;-97.880;2023-05-13T04:49:00;98338.06;;;28.92;57.95
38880;BME280;25887;30.194;-97.880;2023-05-13T04:51:26;98341.66;;;28.91;58.42
38880;BME280;25887;30.194;-97.880;2023-05-13T04:53:52;98351.28;;;28.92;58.45
38880;BME280;25887;30.194;-97.880;2023-05-13T04:56:18;98340.81;;;28.90;58.17
38880;BME280;25887;30.194;-97.880;2023-05-13T04:58:45;98342.59;;;28.90;57.92
38880;BME280;25887;30.194;-97.880;2023-05-13T05:01:11;98342.59;;;28.90;58.22
38880;BME280;25887;30.194;-97.880;2023-05-13T05:03:37;98351.50;;;28.89;58.41
38880;BME280;25887;30.194;-97.880;2023-05-13T05:06:04;98354.97;;;28.89;58.31
38880;BME280;25887;30.194;-97.880;2023-05-13T05:08:30;98362.91;;;28.89;58.51
38880;BME280;25887;30.194;-97.880;2023-05-13T05:10:56;98370.75;;;28.91;58.29
38880;BME280;25887;30.194;-97.880;2023-05-13T05:13:22;98372.44;;;28.92;58.43
38880;BME280;25887;30.194;-97.880;2023-05-13T05:15:49;98375.09;;;28.92;58.54
38880;BME280;25887;30.194;-97.880;2023-05-13T05:18:15;98370.75;;;28.91;58.44
38880;BME280;25887;30.194;-97.880;2023-05-13T05:20:41;98374.13;;;28.93;58.58
38880;BME280;25887;30.194;-97.880;2023-05-13T05:23:07;98358.25;;;28.93;58.47
38880;BME280;25887;30.194;-97.880;2023-05-13T05:25:35;98373.16;;;28.94;58.58
38880;BME280;25887;30.194;-97.880;2023-05-13T05:28:01;98372.19;;;28.95;58.48
38880;BME280;25887;30.194;-97.880;2023-05-13T05:30:31;98370.53;;;28.94;58.36
38880;BME280;25887;30.194;-97.880;2023-05-13T05:33:07;98374.84;;;28.95;58.14
38880;BME280;25887;30.194;-97.880;2023-05-13T05:35:33;98367.88;;;28.94;58.85
38880;BME280;25887;30.194;-97.880;2023-05-13T05:38:03;98365.22;;;28.94;58.51
38880;BME280;25887;30.194;-97.880;2023-05-13T05:40:31;98368.00;;;28.92;58.51
38880;BME280;25887;30.194;-97.880;2023-05-13T05:42:57;98359.22;;;28.92;58.56
38880;BME280;25887;30.194;-97.880;2023-05-13T05:45:23;98364.50;;;28.92;58.77
38880;BME280;25887;30.194;-97.880;2023-05-13T05:47:49;98352.25;;;28.91;59.01
38880;BME280;25887;30.194;-97.880;2023-05-13T05:50:16;98357.75;;;28.88;58.62
38880;BME280;25887;30.194;-97.880;2023-05-13T05:52:42;98363.38;;;28.83;58.50
38880;BME280;25887;30.194;-97.880;2023-05-13T05:55:08;98379.34;;;28.81;58.74
38880;BME280;25887;30.194;-97.880;2023-05-13T05:57:34;98383.16;;;28.77;59.01
38880;BME280;25887;30.194;-97.880;2023-05-13T06:00:02;98372.84;;;28.74;58.96
38880;BME280;25887;30.194;-97.880;2023-05-13T06:02:30;98369.56;;;28.71;58.96
38880;BME280;25887;30.194;-97.880;2023-05-13T06:04:56;98370.63;;;28.68;59.05
38880;BME280;25887;30.194;-97.880;2023-05-13T06:07:23;98362.19;;;28.63;59.20
38880;BME280;25887;30.194;-97.880;2023-05-13T06:09:49;98374.81;;;28.59;58.83
38880;BME280;25887;30.194;-97.880;2023-05-13T06:12:15;98378.34;;;28.47;58.61
38880;BME280;25887;30.194;-97.880;2023-05-13T06:14:41;98388.22;;;28.33;57.41
38880;BME280;25887;30.194;-97.880;2023-05-13T06:17:07;98380.66;;;28.15;56.52
38880;BME280;25887;30.194;-97.880;2023-05-13T06:19:33;98368.75;;;27.97;56.04
38880;BME280;25887;30.194;-97.880;2023-05-13T06:22:00;98365.72;;;27.77;55.22
38880;BME280;25887;30.194;-97.880;2023-05-13T06:24:26;98352.84;;;27.60;54.49
38880;BME280;25887;30.194;-97.880;2023-05-13T06:26:52;98355.81;;;27.43;54.31
38880;BME280;25887;30.194;-97.880;2023-05-13T06:29:18;98346.31;;;27.28;53.62
38880;BME280;25887;30.194;-97.880;2023-05-13T06:31:44;98339.13;;;27.17;53.76
38880;BME280;25887;30.194;-97.880;2023-05-13T06:34:10;98330.25;;;27.05;53.50
38880;BME280;25887;30.194;-97.880;2023-05-13T06:36:42;98337.59;;;26.87;53.22
38880;BME280;25887;30.194;-97.880;2023-05-13T06:39:09;98365.81;;;26.73;53.24
38880;BME280;25887;30.194;-97.880;2023-05-13T06:41:40;98381.78;;;26.57;53.43
38880;BME280;25887;30.194;-97.880;2023-05-13T06:44:07;98402.16;;;26.41;53.45
38880;BME280;25887;30.194;-97.880;2023-05-13T06:46:33;98404.34;;;26.20;53.59
38880;BME280;25887;30.194;-97.880;2023-05-13T06:48:59;98477.72;;;25.97;54.22
38880;BME280;25887;30.194;-97.880;2023-05-13T06:51:25;98575.28;;;25.80;54.40
38880;BME280;25887;30.194;-97.880;2023-05-13T06:53:53;98583.09;;;25.66;54.40
38880;BME280;25887;30.194;-97.880;2023-05-13T06:56:19;98582.88;;;25.54;55.02
38880;BME280;25887;30.194;-97.880;2023-05-13T06:58:51;98547.59;;;25.43;55.19
38880;BME280;25887;30.194;-97.880;2023-05-13T07:01:18;98540.69;;;25.26;55.43
38880;BME280;25887;30.194;-97.880;2023-05-13T07:04:04;98580.97;;;25.11;55.81
38880;BME280;25887;30.194;-97.880;2023-05-13T07:06:30;98618.09;;;24.89;55.94
38880;BME280;25887;30.194;-97.880;2023-05-13T07:08:56;98595.97;;;24.77;56.13
38880;BME280;25887;30.194;-97.880;2023-05-13T07:11:22;98497.56;;;24.67;56.37
38880;BME280;25887;30.194;-97.880;2023-05-13T07:13:49;98415.00;;;24.55;56.61
38880;BME280;25887;30.194;-97.880;2023-05-13T07:16:16;98366.81;;;24.40;56.94
38880;BME280;25887;30.194;-97.880;2023-05-13T07:18:42;98396.53;;;24.25;56.95
38880;BME280;25887;30.194;-97.880;2023-05-13T07:21:08;98468.94;;;24.13;57.41
38880;BME280;25887;30.194;-97.880;2023-05-13T07:23:36;98482.59;;;24.03;57.64
38880;BME280;25887;30.194;-97.880;2023-05-13T07:26:03;98468.97;;;23.96;57.90
38880;BME280;25887;30.194;-97.880;2023-05-13T07:28:32;98459.81;;;23.87;57.81
38880;BME280;25887;30.194;-97.880;2023-05-13T07:30:58;98464.47;;;23.82;57.96
38880;BME280;25887;30.194;-97.880;2023-05-13T07:33:24;98441.84;;;23.80;57.94
38880;BME280;25887;30.194;-97.880;2023-05-13T07:35:50;98440.31;;;23.76;58.03
38880;BME280;25887;30.194;-97.880;2023-05-13T07:38:17;98466.78;;;23.71;58.46
38880;BME280;25887;30.194;-97.880;2023-05-13T07:40:43;98486.38;;;23.64;58.27
38880;BME280;25887;30.194;-97.880;2023-05-13T07:43:09;98477.09;;;23.57;58.67
38880;BME280;25887;30.194;-97.880;2023-05-13T07:45:35;98490.53;;;23.51;58.48
38880;BME280;25887;30.194;-97.880;2023-05-13T07:48:01;98515.28;;;23.45;58.69
38880;BME280;25887;30.194;-97.880;2023-05-13T07:50:27;98545.16;;;23.43;58.77
38880;BME280;25887;30.194;-97.880;2023-05-13T07:52:54;98567.03;;;23.42;59.19
38880;BME280;25887;30.194;-97.880;2023-05-13T07:55:20;98563.50;;;23.43;58.99
38880;BME280;25887;30.194;-97.880;2023-05-13T07:57:46;98557.56;;;23.39;59.26
38880;BME280;25887;30.194;-97.880;2023-05-13T08:00:13;98549.75;;;23.38;59.17
38880;BME280;25887;30.194;-97.880;2023-05-13T08:02:41;98538.34;;;23.39;59.08
38880;BME280;25887;30.194;-97.880;2023-05-13T08:05:09;98515.59;;;23.39;58.99
38880;BME280;25887;30.194;-97.880;2023-05-13T08:07:35;98489.38;;;23.39;59.03
38880;BME280;25887;30.194;-97.880;2023-05-13T08:10:02;98467.84;;;23.32;59.50
38880;BME280;25887;30.194;-97.880;2023-05-13T08:12:28;98462.78;;;23.29;59.30
38880;BME280;25887;30.194;-97.880;2023-05-13T08:14:54;98455.00;;;23.28;59.69
38880;BME280;25887;30.194;-97.880;2023-05-13T08:17:20;98415.97;;;23.22;59.67
38880;BME280;25887;30.194;-97.880;2023-05-13T08:23:09;98369.75;;;23.03;59.87
38880;BME280;25887;30.194;-97.880;2023-05-13T08:25:36;98334.31;;;22.96;60.11
38880;BME280;25887;30.194;-97.880;2023-05-13T08:28:02;98314.63;;;22.88;60.51
38880;BME280;25887;30.194;-97.880;2023-05-13T08:30:28;98306.44;;;22.76;60.68
38880;BME280;25887;30.194;-97.880;2023-05-13T08:32:54;98317.38;;;22.67;61.07
38880;BME280;25887;30.194;-97.880;2023-05-13T08:35:20;98312.53;;;22.60;61.17
38880;BME280;25887;30.194;-97.880;2023-05-13T08:37:46;98306.75;;;22.53;61.05
38880;BME280;25887;30.194;-97.880;2023-05-13T08:40:13;98296.44;;;22.50;61.28
38880;BME280;25887;30.194;-97.880;2023-05-13T08:42:41;98273.94;;;22.46;61.71
38880;BME280;25887;30.194;-97.880;2023-05-13T08:45:08;98265.41;;;22.42;61.39
38880;BME280;25887;30.194;-97.880;2023-05-13T08:50:14;98269.47;;;22.31;61.83
38880;BME280;25887;30.194;-97.880;2023-05-13T08:52:42;98278.41;;;22.27;61.90
38880;BME280;25887;30.194;-97.880;2023-05-13T08:55:08;98301.97;;;22.27;62.14
38880;BME280;25887;30.194;-97.880;2023-05-13T08:57:35;98305.47;;;22.25;62.25
38880;BME280;25887;30.194;-97.880;2023-05-13T09:00:02;98299.25;;;22.28;62.21
38880;BME280;25887;30.194;-97.880;2023-05-13T09:02:29;98278.25;;;22.30;62.17
38880;BME280;25887;30.194;-97.880;2023-05-13T09:05:01;98265.06;;;22.31;61.86
38880;BME280;25887;30.194;-97.880;2023-05-13T09:07:29;98268.63;;;22.30;61.97
38880;BME280;25887;30.194;-97.880;2023-05-13T09:09:56;98323.50;;;22.32;62.09
38880;BME280;25887;30.194;-97.880;2023-05-13T09:12:41;98352.16;;;22.35;62.23
38880;BME280;25887;30.194;-97.880;2023-05-13T09:15:10;98393.25;;;22.33;62.23
38880;BME280;25887;30.194;-97.880;2023-05-13T09:17:41;98435.00;;;22.36;62.06
38880;BME280;25887;30.194;-97.880;2023-05-13T09:20:12;98448.84;;;22.38;62.06
38880;BME280;25887;30.194;-97.880;2023-05-13T09:22:54;98450.28;;;22.45;62.06
38880;BME280;25887;30.194;-97.880;2023-05-13T09:25:22;98437.09;;;22.46;61.89
38880;BME280;25887;30.194;-97.880;2023-05-13T09:27:52;98458.81;;;22.48;62.30
38880;BME280;25887;30.194;-97.880;2023-05-13T09:30:23;98459.63;;;22.50;61.87
38880;BME280;25887;30.194;-97.880;2023-05-13T09:33:28;98480.31;;;22.55;62.07
38880;BME280;25887;30.194;-97.880;2023-05-13T09:35:54;98490.88;;;22.53;61.95
38880;BME280;25887;30.194;-97.880;2023-05-13T09:38:24;98522.22;;;22.55;62.06
38880;BME280;25887;30.194;-97.880;2023-05-13T09:40:58;98537.94;;;22.55;61.68
38880;BME280;25887;30.194;-97.880;2023-05-13T09:43:27;98554.44;;;22.57;62.07
38880;BME280;25887;30.194;-97.880;2023-05-13T09:46:00;98536.13;;;22.57;61.96
38880;BME280;25887;30.194;-97.880;2023-05-13T09:48:28;98532.44;;;22.61;62.21
38880;BME280;25887;30.194;-97.880;2023-05-13T09:50:55;98538.44;;;22.63;62.24
38880;BME280;25887;30.194;-97.880;2023-05-13T09:53:25;98557.59;;;22.64;62.03
38880;BME280;25887;30.194;-97.880;2023-05-13T09:55:55;98554.94;;;22.65;62.18
38880;BME280;25887;30.194;-97.880;2023-05-13T09:58:23;98546.16;;;22.66;62.33
38880;BME280;25887;30.194;-97.880;2023-05-13T10:00:50;98521.78;;;22.64;62.02
38880;BME280;25887;30.194;-97.880;2023-05-13T10:03:17;98518.28;;;22.65;62.44
38880;BME280;25887;30.194;-97.880;2023-05-13T10:05:43;98514.94;;;22.62;62.06
38880;BME280;25887;30.194;-97.880;2023-05-13T10:08:12;98501.00;;;22.61;62.14
38880;BME280;25887;30.194;-97.880;2023-05-13T10:11:09;98475.75;;;22.60;62.04
38880;BME280;25887;30.194;-97.880;2023-05-13T10:13:36;98452.44;;;22.54;62.54
38880;BME280;25887;30.194;-97.880;2023-05-13T10:16:06;98450.00;;;22.51;62.17
38880;BME280;25887;30.194;-97.880;2023-05-13T10:18:32;98444.88;;;22.48;62.51
38880;BME280;25887;30.194;-97.880;2023-05-13T10:20:59;98435.34;;;22.47;62.59
38880;BME280;25887;30.194;-97.880;2023-05-13T10:23:27;98419.78;;;22.44;62.66
38880;BME280;25887;30.194;-97.880;2023-05-13T10:25:54;98412.94;;;22.41;62.44
38880;BME280;25887;30.194;-97.880;2023-05-13T10:28:21;98395.59;;;22.39;62.64
38880;BME280;25887;30.194;-97.880;2023-05-13T10:30:50;98399.88;;;22.40;62.77
38880;BME280;25887;30.194;-97.880;2023-05-13T10:33:17;98399.84;;;22.41;62.64
38880;BME280;25887;30.194;-97.880;2023-05-13T10:35:56;98403.34;;;22.40;62.29
38880;BME280;25887;30.194;-97.880;2023-05-13T10:43:57;98376.31;;;22.40;62.46
38880;BME280;25887;30.194;-97.880;2023-05-13T10:46:24;98365.09;;;22.38;62.68
38880;BME280;25887;30.194;-97.880;2023-05-13T10:48:56;98350.31;;;22.37;62.67
38880;BME280;25887;30.194;-97.880;2023-05-13T10:51:24;98333.88;;;22.33;62.42
38880;BME280;25887;30.194;-97.880;2023-05-13T10:53:52;98307.97;;;22.29;62.69
38880;BME280;25887;30.194;-97.880;2023-05-13T10:56:20;98302.84;;;22.25;62.94
38880;BME280;25887;30.194;-97.880;2023-05-13T10:59:03;98280.38;;;22.21;62.67
38880;BME280;25887;30.194;-97.880;2023-05-13T11:01:33;98264.22;;;22.13;62.74
38880;BME280;25887;30.194;-97.880;2023-05-13T11:04:02;98242.69;;;22.07;63.01
38880;BME280;25887;30.194;-97.880;2023-05-13T11:06:36;98247.25;;;22.03;62.83
38880;BME280;25887;30.194;-97.880;2023-05-13T11:09:05;98252.75;;;21.97;63.21
38880;BME280;25887;30.194;-97.880;2023-05-13T11:11:35;98245.19;;;21.91;63.05
38880;BME280;25887;30.194;-97.880;2023-05-13T11:14:14;98208.75;;;21.88;63.08
38880;BME280;25887;30.194;-97.880;2023-05-13T11:16:52;98173.19;;;21.84;63.32
38880;BME280;25887;30.194;-97.880;2023-05-13T11:19:30;98180.34;;;21.80;63.46
38880;BME280;25887;30.194;-97.880;2023-05-13T11:22:13;98221.56;;;21.75;63.45
38880;BME280;25887;30.194;-97.880;2023-05-13T11:24:40;98254.84;;;21.72;63.58
38880;BME280;25887;30.194;-97.880;2023-05-13T11:27:39;98283.38;;;21.76;63.37
38880;BME280;25887;30.194;-97.880;2023-05-13T11:34:32;98301.56;;;21.79;63.43
38880;BME280;25887;30.194;-97.880;2023-05-13T11:40:39;98276.63;;;21.72;63.51
38880;BME280;25887;30.194;-97.880;2023-05-13T11:43:05;98266.22;;;21.70;63.51
38880;BME280;25887;30.194;-97.880;2023-05-13T11:45:37;98281.78;;;21.74;63.39
38880;BME280;25887;30.194;-97.880;2023-05-13T11:48:19;98272.94;;;21.76;63.58
38880;BME280;25887;30.194;-97.880;2023-05-13T11:50:47;98265.09;;;21.76;63.39
38880;BME280;25887;30.194;-97.880;2023-05-13T11:53:19;98259.00;;;21.76;63.60
38880;BME280;25887;30.194;-97.880;2023-05-13T11:55:47;98251.16;;;21.76;63.57
38880;BME280;25887;30.194;-97.880;2023-05-13T11:58:14;98258.09;;;21.77;63.66
38880;BME280;25887;30.194;-97.880;2023-05-13T12:00:41;98258.00;;;21.78;63.52
38880;BME280;25887;30.194;-97.880;2023-05-13T12:03:11;98262.25;;;21.81;63.74
38880;BME280;25887;30.194;-97.880;2023-05-13T12:05:38;98265.72;;;21.81;63.18
38880;BME280;25887;30.194;-97.880;2023-05-13T12:08:07;98259.66;;;21.81;63.41
38880;BME280;25887;30.194;-97.880;2023-05-13T12:10:34;98284.88;;;21.82;63.30
38880;BME280;25887;30.194;-97.880;2023-05-13T12:13:01;98301.41;;;21.82;63.36
38880;BME280;25887;30.194;-97.880;2023-05-13T12:15:27;98307.34;;;21.86;63.42
38880;BME280;25887;30.194;-97.880;2023-05-13T12:17:54;98318.66;;;21.86;63.40
38880;BME280;25887;30.194;-97.880;2023-05-13T12:20:22;98322.13;;;21.87;63.23
38880;BME280;25887;30.194;-97.880;2023-05-13T12:28:04;98340.28;;;21.90;63.66
38880;BME280;25887;30.194;-97.880;2023-05-13T12:30:35;98344.44;;;21.94;63.55
38880;BME280;25887;30.194;-97.880;2023-05-13T12:33:02;98338.31;;;21.95;63.25
38880;BME280;25887;30.194;-97.880;2023-05-13T12:35:32;98326.84;;;21.97;63.33
38880;BME280;25887;30.194;-97.880;2023-05-13T12:38:02;98336.41;;;21.98;63.43
38880;BME280;25887;30.194;-97.880;2023-05-13T12:40:28;98342.47;;;21.99;63.36
38880;BME280;25887;30.194;-97.880;2023-05-13T12:42:59;98343.25;;;22.01;63.63
38880;BME280;25887;30.194;-97.880;2023-05-13T12:45:27;98332.78;;;22.01;63.32
38880;BME280;25887;30.194;-97.880;2023-05-13T12:47:56;98318.94;;;21.99;63.69
38880;BME280;25887;30.194;-97.880;2023-05-13T12:50:24;98314.63;;;21.98;63.69
38880;BME280;25887;30.194;-97.880;2023-05-13T12:52:51;98317.25;;;21.98;63.43
38880;BME280;25887;30.194;-97.880;2023-05-13T12:55:18;98301.63;;;21.96;63.70
38880;BME280;25887;30.194;-97.880;2023-05-13T12:58:00;98285.00;;;21.97;63.54
38880;BME280;25887;30.194;-97.880;2023-05-13T13:00:28;98315.53;;;21.97;63.47
38880;BME280;25887;30.194;-97.880;2023-05-13T13:02:55;98362.63;;;21.97;63.85
38880;BME280;25887;30.194;-97.880;2023-05-13T13:05:26;98381.72;;;21.99;63.84
38880;BME280;25887;30.194;-97.880;2023-05-13T13:07:52;98366.03;;;21.99;63.56
38880;BME280;25887;30.194;-97.880;2023-05-13T13:10:18;98356.41;;;22.00;63.52
38880;BME280;25887;30.194;-97.880;2023-05-13T13:12:44;98333.84;;;21.97;63.92
38880;BME280;25887;30.194;-97.880;2023-05-13T13:15:11;98338.16;;;21.98;63.74
38880;BME280;25887;30.194;-97.880;2023-05-13T13:17:37;98340.78;;;21.98;64.02
38880;BME280;25887;30.194;-97.880;2023-05-13T13:20:04;98339.84;;;21.99;63.84
38880;BME280;25887;30.194;-97.880;2023-05-13T13:22:31;98342.47;;;21.99;63.69
38880;BME280;25887;30.194;-97.880;2023-05-13T13:24:58;98351.25;;;21.98;63.87
38880;BME280;25887;30.194;-97.880;2023-05-13T13:27:27;98362.47;;;22.00;63.70